sensor_id;sensor_type;location;lat;lon;timestamp;P1;durP1;ratioP1;P2;durP2;ratioP2
69172;SDS011;56280;49.662;8.408;2023-05-07T00:00:43;7.27;;;3.97;;
69172;SDS011;56280;49.662;8.408;2023-05-07T00:03:08;6.90;;;4.20;;
69172;SDS011;56280;49.662;8.408;2023-05-07T00:05:34;6.80;;;3.73;;
69172;SDS011;56280;49.662;8.408;2023-05-07T00:07:59;5.63;;;3.90;;
69172;SDS011;56280;49.662;8.408;2023-05-07T00:10:25;6.93;;;3.93;;
69172;SDS011;56280;49.662;8.408;2023-05-07T00:12:50;6.30;;;4.00;;
69172;SDS011;56280;49.662;8.408;2023-05-07T00:15:16;6.07;;;3.97;;
69172;SDS011;56280;49.662;8.408;2023-05-07T00:17:41;7.57;;;4.10;;
69172;SDS011;56280;49.662;8.408;2023-05-07T00:20:06;6.30;;;3.90;;
69172;SDS011;56280;49.662;8.408;2023-05-07T00:22:32;6.57;;;3.97;;
69172;SDS011;56280;49.662;8.408;2023-05-07T00:24:57;6.63;;;3.90;;
69172;SDS011;56280;49.662;8.408;2023-05-07T00:27:24;5.63;;;3.83;;
69172;SDS011;56280;49.662;8.408;2023-05-07T00:29:50;7.45;;;3.70;;
69172;SDS011;56280;49.662;8.408;2023-05-07T00:32:15;6.17;;;3.70;;
69172;SDS011;56280;49.662;8.408;2023-05-07T00:34:41;5.63;;;3.63;;
69172;SDS011;56280;49.662;8.408;2023-05-07T00:37:06;7.27;;;3.50;;
69172;SDS011;56280;49.662;8.408;2023-05-07T00:39:34;5.47;;;3.60;;
69172;SDS011;56280;49.662;8.408;2023-05-07T00:42:00;7.15;;;3.95;;
69172;SDS011;56280;49.662;8.408;2023-05-07T00:44:26;5.37;;;3.53;;
69172;SDS011;56280;49.662;8.408;2023-05-07T00:46:51;6.10;;;3.60;;
69172;SDS011;56280;49.662;8.408;2023-05-07T00:49:17;6.60;;;4.10;;
69172;SDS011;56280;49.662;8.408;2023-05-07T00:51:43;7.22;;;4.03;;
69172;SDS011;56280;49.662;8.408;2023-05-07T00:54:09;6.30;;;4.13;;
69172;SDS011;56280;49.662;8.408;2023-05-07T00:56:36;7.38;;;4.13;;
69172;SDS011;56280;49.662;8.408;2023-05-07T00:59:02;7.90;;;4.10;;
69172;SDS011;56280;49.662;8.408;2023-05-07T01:01:28;6.63;;;4.05;;
69172;SDS011;56280;49.662;8.408;2023-05-07T01:03:53;7.07;;;4.07;;
69172;SDS011;56280;49.662;8.408;2023-05-07T01:06:18;5.47;;;3.67;;
69172;SDS011;56280;49.662;8.408;2023-05-07T01:08:46;6.15;;;3.90;;
69172;SDS011;56280;49.662;8.408;2023-05-07T01:11:12;7.47;;;3.90;;
69172;SDS011;56280;49.662;8.408;2023-05-07T01:13:38;6.55;;;4.07;;
69172;SDS011;56280;49.662;8.408;2023-05-07T01:16:05;6.13;;;3.80;;
69172;SDS011;56280;49.662;8.408;2023-05-07T01:18:31;5.57;;;3.80;;
69172;SDS011;56280;49.662;8.408;2023-05-07T01:20:58;6.70;;;4.03;;
69172;SDS011;56280;49.662;8.408;2023-05-07T01:23:25;7.90;;;3.92;;
69172;SDS011;56280;49.662;8.408;2023-05-07T01:25:52;7.57;;;4.10;;
69172;SDS011;56280;49.662;8.408;2023-05-07T01:28:18;6.10;;;3.90;;
69172;SDS011;56280;49.662;8.408;2023-05-07T01:30:44;6.33;;;3.80;;
69172;SDS011;56280;49.662;8.408;2023-05-07T01:33:13;5.90;;;3.57;;
69172;SDS011;56280;49.662;8.408;2023-05-07T01:35:42;6.60;;;4.10;;
69172;SDS011;56280;49.662;8.408;2023-05-07T01:38:10;7.18;;;4.18;;
69172;SDS011;56280;49.662;8.408;2023-05-07T01:40:37;6.23;;;3.97;;
69172;SDS011;56280;49.662;8.408;2023-05-07T01:43:02;7.97;;;3.92;;
69172;SDS011;56280;49.662;8.408;2023-05-07T01:45:28;6.53;;;4.05;;
69172;SDS011;56280;49.662;8.408;2023-05-07T01:47:55;8.23;;;4.22;;
69172;SDS011;56280;49.662;8.408;2023-05-07T01:50:22;6.82;;;4.00;;
69172;SDS011;56280;49.662;8.408;2023-05-07T01:52:49;7.10;;;4.00;;
69172;SDS011;56280;49.662;8.408;2023-05-07T01:55:15;10.40;;;4.38;;
69172;SDS011;56280;49.662;8.408;2023-05-07T01:57:40;6.73;;;4.20;;
69172;SDS011;56280;49.662;8.408;2023-05-07T02:00:06;5.63;;;3.77;;
69172;SDS011;56280;49.662;8.408;2023-05-07T02:02:33;6.25;;;4.00;;
69172;SDS011;56280;49.662;8.408;2023-05-07T02:04:59;6.17;;;4.00;;
69172;SDS011;56280;49.662;8.408;2023-05-07T02:07:24;6.53;;;3.83;;
69172;SDS011;56280;49.662;8.408;2023-05-07T02:09:49;6.23;;;3.97;;
69172;SDS011;56280;49.662;8.408;2023-05-07T02:12:15;7.10;;;3.90;;
69172;SDS011;56280;49.662;8.408;2023-05-07T02:14:40;6.63;;;4.07;;
69172;SDS011;56280;49.662;8.408;2023-05-07T02:17:05;7.30;;;4.23;;
69172;SDS011;56280;49.662;8.408;2023-05-07T02:19:30;6.27;;;4.00;;
69172;SDS011;56280;49.662;8.408;2023-05-07T02:21:56;7.03;;;4.20;;
69172;SDS011;56280;49.662;8.408;2023-05-07T02:24:21;6.50;;;4.20;;
69172;SDS011;56280;49.662;8.408;2023-05-07T02:26:46;8.10;;;4.50;;
69172;SDS011;56280;49.662;8.408;2023-05-07T02:29:11;6.03;;;4.43;;
69172;SDS011;56280;49.662;8.408;2023-05-07T02:31:37;7.10;;;4.10;;
69172;SDS011;56280;49.662;8.408;2023-05-07T02:34:02;7.40;;;4.37;;
69172;SDS011;56280;49.662;8.408;2023-05-07T02:36:27;6.70;;;4.17;;
69172;SDS011;56280;49.662;8.408;2023-05-07T02:38:52;6.90;;;4.27;;
69172;SDS011;56280;49.662;8.408;2023-05-07T02:41:18;6.37;;;4.10;;
69172;SDS011;56280;49.662;8.408;2023-05-07T02:43:43;6.97;;;4.80;;
69172;SDS011;56280;49.662;8.408;2023-05-07T02:46:09;7.78;;;4.65;;
69172;SDS011;56280;49.662;8.408;2023-05-07T02:48:34;8.15;;;4.82;;
69172;SDS011;56280;49.662;8.408;2023-05-07T02:51:00;8.37;;;5.20;;
69172;SDS011;56280;49.662;8.408;2023-05-07T02:53:26;7.55;;;5.30;;
69172;SDS011;56280;49.662;8.408;2023-05-07T02:55:55;7.80;;;4.90;;
69172;SDS011;56280;49.662;8.408;2023-05-07T02:58:22;7.63;;;4.75;;
69172;SDS011;56280;49.662;8.408;2023-05-07T03:00:47;6.97;;;5.00;;
69172;SDS011;56280;49.662;8.408;2023-05-07T03:03:13;6.77;;;5.07;;
69172;SDS011;56280;49.662;8.408;2023-05-07T03:05:39;7.43;;;4.97;;
69172;SDS011;56280;49.662;8.408;2023-05-07T03:08:04;7.93;;;5.23;;
69172;SDS011;56280;49.662;8.408;2023-05-07T03:10:30;8.07;;;5.53;;
69172;SDS011;56280;49.662;8.408;2023-05-07T03:12:55;8.33;;;5.17;;
69172;SDS011;56280;49.662;8.408;2023-05-07T03:15:20;7.20;;;5.43;;
69172;SDS011;56280;49.662;8.408;2023-05-07T03:17:46;8.07;;;5.63;;
69172;SDS011;56280;49.662;8.408;2023-05-07T03:20:12;7.55;;;5.65;;
69172;SDS011;56280;49.662;8.408;2023-05-07T03:22:38;7.30;;;5.40;;
69172;SDS011;56280;49.662;8.408;2023-05-07T03:25:03;8.50;;;5.43;;
69172;SDS011;56280;49.662;8.408;2023-05-07T03:27:29;7.70;;;5.47;;
69172;SDS011;56280;49.662;8.408;2023-05-07T03:29:54;7.47;;;5.13;;
69172;SDS011;56280;49.662;8.408;2023-05-07T03:32:20;9.50;;;5.63;;
69172;SDS011;56280;49.662;8.408;2023-05-07T03:34:45;7.70;;;5.10;;
69172;SDS011;56280;49.662;8.408;2023-05-07T03:37:10;7.70;;;4.80;;
69172;SDS011;56280;49.662;8.408;2023-05-07T03:39:35;7.33;;;4.90;;
69172;SDS011;56280;49.662;8.408;2023-05-07T03:42:01;8.00;;;5.20;;
69172;SDS011;56280;49.662;8.408;2023-05-07T03:44:26;7.57;;;5.27;;
69172;SDS011;56280;49.662;8.408;2023-05-07T03:46:51;8.10;;;5.60;;
69172;SDS011;56280;49.662;8.408;2023-05-07T03:49:17;7.35;;;5.05;;
69172;SDS011;56280;49.662;8.408;2023-05-07T03:51:42;9.13;;;5.25;;
69172;SDS011;56280;49.662;8.408;2023-05-07T03:54:08;7.18;;;5.20;;
69172;SDS011;56280;49.662;8.408;2023-05-07T03:56:33;7.70;;;4.97;;
69172;SDS011;56280;49.662;8.408;2023-05-07T03:58:59;8.27;;;5.50;;
69172;SDS011;56280;49.662;8.408;2023-05-07T04:01:25;6.97;;;5.40;;
69172;SDS011;56280;49.662;8.408;2023-05-07T04:03:50;8.53;;;5.37;;
69172;SDS011;56280;49.662;8.408;2023-05-07T04:06:16;7.60;;;5.20;;
69172;SDS011;56280;49.662;8.408;2023-05-07T04:08:42;7.10;;;5.32;;
69172;SDS011;56280;49.662;8.408;2023-05-07T04:11:07;7.90;;;5.50;;
69172;SDS011;56280;49.662;8.408;2023-05-07T04:13:32;7.77;;;5.30;;
69172;SDS011;56280;49.662;8.408;2023-05-07T04:15:58;6.90;;;4.90;;
69172;SDS011;56280;49.662;8.408;2023-05-07T04:18:23;7.80;;;5.13;;
69172;SDS011;56280;49.662;8.408;2023-05-07T04:20:49;9.13;;;5.27;;
69172;SDS011;56280;49.662;8.408;2023-05-07T04:23:14;8.98;;;5.28;;
69172;SDS011;56280;49.662;8.408;2023-05-07T04:25:40;7.83;;;5.03;;
69172;SDS011;56280;49.662;8.408;2023-05-07T04:28:06;7.40;;;5.28;;
69172;SDS011;56280;49.662;8.408;2023-05-07T04:30:31;6.97;;;4.77;;
69172;SDS011;56280;49.662;8.408;2023-05-07T04:32:57;6.50;;;4.70;;
69172;SDS011;56280;49.662;8.408;2023-05-07T04:35:22;7.32;;;4.30;;
69172;SDS011;56280;49.662;8.408;2023-05-07T04:37:47;5.93;;;4.50;;
69172;SDS011;56280;49.662;8.408;2023-05-07T04:40:12;7.07;;;4.68;;
69172;SDS011;56280;49.662;8.408;2023-05-07T04:42:38;6.50;;;4.43;;
69172;SDS011;56280;49.662;8.408;2023-05-07T04:45:03;7.57;;;4.65;;
69172;SDS011;56280;49.662;8.408;2023-05-07T04:47:29;7.30;;;5.00;;
69172;SDS011;56280;49.662;8.408;2023-05-07T04:49:55;8.27;;;4.88;;
69172;SDS011;56280;49.662;8.408;2023-05-07T04:52:20;7.10;;;4.67;;
69172;SDS011;56280;49.662;8.408;2023-05-07T04:54:45;7.87;;;4.87;;
69172;SDS011;56280;49.662;8.408;2023-05-07T04:57:11;7.50;;;5.00;;
69172;SDS011;56280;49.662;8.408;2023-05-07T04:59:36;6.37;;;4.63;;
69172;SDS011;56280;49.662;8.408;2023-05-07T05:02:01;8.00;;;5.17;;
69172;SDS011;56280;49.662;8.408;2023-05-07T05:04:29;7.80;;;5.25;;
69172;SDS011;56280;49.662;8.408;2023-05-07T05:06:54;7.63;;;5.17;;
69172;SDS011;56280;49.662;8.408;2023-05-07T05:09:19;7.63;;;4.90;;
69172;SDS011;56280;49.662;8.408;2023-05-07T05:11:45;6.90;;;4.93;;
69172;SDS011;56280;49.662;8.408;2023-05-07T05:14:10;7.87;;;5.03;;
69172;SDS011;56280;49.662;8.408;2023-05-07T05:16:35;8.00;;;5.03;;
69172;SDS011;56280;49.662;8.408;2023-05-07T05:19:01;6.80;;;4.73;;
69172;SDS011;56280;49.662;8.408;2023-05-07T05:21:27;7.13;;;4.68;;
69172;SDS011;56280;49.662;8.408;2023-05-07T05:23:52;7.97;;;4.90;;
69172;SDS011;56280;49.662;8.408;2023-05-07T05:26:17;7.03;;;4.83;;
69172;SDS011;56280;49.662;8.408;2023-05-07T05:28:43;8.67;;;4.50;;
69172;SDS011;56280;49.662;8.408;2023-05-07T05:31:08;7.00;;;4.90;;
69172;SDS011;56280;49.662;8.408;2023-05-07T05:33:34;6.37;;;4.50;;
69172;SDS011;56280;49.662;8.408;2023-05-07T05:35:59;8.27;;;5.33;;
69172;SDS011;56280;49.662;8.408;2023-05-07T05:38:24;7.03;;;4.73;;
69172;SDS011;56280;49.662;8.408;2023-05-07T05:40:50;7.63;;;4.85;;
69172;SDS011;56280;49.662;8.408;2023-05-07T05:43:16;7.53;;;4.63;;
69172;SDS011;56280;49.662;8.408;2023-05-07T05:45:41;7.57;;;5.07;;
69172;SDS011;56280;49.662;8.408;2023-05-07T05:48:06;7.10;;;4.80;;
69172;SDS011;56280;49.662;8.408;2023-05-07T05:50:33;6.80;;;4.90;;
69172;SDS011;56280;49.662;8.408;2023-05-07T05:53:00;6.40;;;4.72;;
69172;SDS011;56280;49.662;8.408;2023-05-07T05:55:26;6.93;;;5.10;;
69172;SDS011;56280;49.662;8.408;2023-05-07T05:57:51;6.80;;;4.72;;
69172;SDS011;56280;49.662;8.408;2023-05-07T06:00:17;7.07;;;4.67;;
69172;SDS011;56280;49.662;8.408;2023-05-07T06:02:42;6.83;;;4.73;;
69172;SDS011;56280;49.662;8.408;2023-05-07T06:05:08;6.53;;;4.80;;
69172;SDS011;56280;49.662;8.408;2023-05-07T06:07:33;7.03;;;4.70;;
69172;SDS011;56280;49.662;8.408;2023-05-07T06:09:59;7.13;;;4.80;;
69172;SDS011;56280;49.662;8.408;2023-05-07T06:12:25;7.03;;;4.70;;
69172;SDS011;56280;49.662;8.408;2023-05-07T06:14:50;8.40;;;5.13;;
69172;SDS011;56280;49.662;8.408;2023-05-07T06:17:16;7.57;;;5.00;;
69172;SDS011;56280;49.662;8.408;2023-05-07T06:19:41;10.63;;;5.10;;
69172;SDS011;56280;49.662;8.408;2023-05-07T06:22:06;7.23;;;4.77;;
69172;SDS011;56280;49.662;8.408;2023-05-07T06:24:32;12.13;;;5.00;;
69172;SDS011;56280;49.662;8.408;2023-05-07T06:26:57;7.30;;;4.60;;
69172;SDS011;56280;49.662;8.408;2023-05-07T06:29:23;7.87;;;4.60;;
69172;SDS011;56280;49.662;8.408;2023-05-07T06:31:50;7.20;;;4.03;;
69172;SDS011;56280;49.662;8.408;2023-05-07T06:34:16;6.50;;;4.45;;
69172;SDS011;56280;49.662;8.408;2023-05-07T06:36:42;7.33;;;4.60;;
69172;SDS011;56280;49.662;8.408;2023-05-07T06:39:07;6.43;;;4.30;;
69172;SDS011;56280;49.662;8.408;2023-05-07T06:41:32;6.77;;;4.40;;
69172;SDS011;56280;49.662;8.408;2023-05-07T06:43:58;6.97;;;4.43;;
69172;SDS011;56280;49.662;8.408;2023-05-07T06:46:23;6.90;;;4.40;;
69172;SDS011;56280;49.662;8.408;2023-05-07T06:48:48;6.60;;;4.70;;
69172;SDS011;56280;49.662;8.408;2023-05-07T06:51:14;6.03;;;4.43;;
69172;SDS011;56280;49.662;8.408;2023-05-07T06:53:39;6.60;;;4.20;;
69172;SDS011;56280;49.662;8.408;2023-05-07T06:56:05;9.77;;;4.53;;
69172;SDS011;56280;49.662;8.408;2023-05-07T06:58:31;6.60;;;4.28;;
69172;SDS011;56280;49.662;8.408;2023-05-07T07:00:56;6.30;;;4.10;;
69172;SDS011;56280;49.662;8.408;2023-05-07T07:03:21;6.97;;;4.27;;
69172;SDS011;56280;49.662;8.408;2023-05-07T07:05:47;7.43;;;4.20;;
69172;SDS011;56280;49.662;8.408;2023-05-07T07:08:12;6.90;;;4.20;;
69172;SDS011;56280;49.662;8.408;2023-05-07T07:10:37;5.63;;;4.33;;
69172;SDS011;56280;49.662;8.408;2023-05-07T07:13:03;6.03;;;4.20;;
69172;SDS011;56280;49.662;8.408;2023-05-07T07:15:28;6.47;;;4.23;;
69172;SDS011;56280;49.662;8.408;2023-05-07T07:17:53;5.87;;;4.13;;
69172;SDS011;56280;49.662;8.408;2023-05-07T07:20:19;6.73;;;4.20;;
69172;SDS011;56280;49.662;8.408;2023-05-07T07:22:44;6.30;;;4.50;;
69172;SDS011;56280;49.662;8.408;2023-05-07T07:25:09;6.40;;;4.27;;
69172;SDS011;56280;49.662;8.408;2023-05-07T07:27:36;5.80;;;4.07;;
69172;SDS011;56280;49.662;8.408;2023-05-07T07:30:01;6.20;;;4.07;;
69172;SDS011;56280;49.662;8.408;2023-05-07T07:32:26;6.37;;;4.10;;
69172;SDS011;56280;49.662;8.408;2023-05-07T07:34:52;5.67;;;4.20;;
69172;SDS011;56280;49.662;8.408;2023-05-07T07:37:17;6.00;;;4.10;;
69172;SDS011;56280;49.662;8.408;2023-05-07T07:39:42;6.17;;;4.13;;
69172;SDS011;56280;49.662;8.408;2023-05-07T07:42:08;5.87;;;4.17;;
69172;SDS011;56280;49.662;8.408;2023-05-07T07:44:33;6.47;;;4.17;;
69172;SDS011;56280;49.662;8.408;2023-05-07T07:46:58;6.60;;;4.20;;
69172;SDS011;56280;49.662;8.408;2023-05-07T07:49:24;5.97;;;4.10;;
69172;SDS011;56280;49.662;8.408;2023-05-07T07:51:49;6.20;;;4.10;;
69172;SDS011;56280;49.662;8.408;2023-05-07T07:54:14;6.00;;;4.27;;
69172;SDS011;56280;49.662;8.408;2023-05-07T07:56:40;5.93;;;3.80;;
69172;SDS011;56280;49.662;8.408;2023-05-07T07:59:05;6.90;;;4.30;;
69172;SDS011;56280;49.662;8.408;2023-05-07T08:01:30;5.67;;;3.70;;
69172;SDS011;56280;49.662;8.408;2023-05-07T08:03:56;8.03;;;4.10;;
69172;SDS011;56280;49.662;8.408;2023-05-07T08:06:23;5.37;;;3.77;;
69172;SDS011;56280;49.662;8.408;2023-05-07T08:08:49;6.60;;;4.10;;
69172;SDS011;56280;49.662;8.408;2023-05-07T08:11:14;5.07;;;3.90;;
69172;SDS011;56280;49.662;8.408;2023-05-07T08:13:39;6.30;;;4.20;;
69172;SDS011;56280;49.662;8.408;2023-05-07T08:16:05;6.57;;;4.32;;
69172;SDS011;56280;49.662;8.408;2023-05-07T08:18:30;5.97;;;4.20;;
69172;SDS011;56280;49.662;8.408;2023-05-07T08:20:55;6.30;;;4.00;;
69172;SDS011;56280;49.662;8.408;2023-05-07T08:23:21;6.57;;;4.20;;
69172;SDS011;56280;49.662;8.408;2023-05-07T08:25:46;7.00;;;4.00;;
69172;SDS011;56280;49.662;8.408;2023-05-07T08:28:12;6.80;;;4.40;;
69172;SDS011;56280;49.662;8.408;2023-05-07T08:30:37;6.47;;;3.97;;
69172;SDS011;56280;49.662;8.408;2023-05-07T08:33:02;6.93;;;4.10;;
69172;SDS011;56280;49.662;8.408;2023-05-07T08:35:28;6.90;;;4.17;;
69172;SDS011;56280;49.662;8.408;2023-05-07T08:37:53;5.30;;;4.07;;
69172;SDS011;56280;49.662;8.408;2023-05-07T08:40:19;5.67;;;3.63;;
69172;SDS011;56280;49.662;8.408;2023-05-07T08:42:45;5.73;;;3.70;;
69172;SDS011;56280;49.662;8.408;2023-05-07T08:45:13;5.88;;;3.67;;
69172;SDS011;56280;49.662;8.408;2023-05-07T08:47:42;5.43;;;3.60;;
69172;SDS011;56280;49.662;8.408;2023-05-07T08:50:12;5.70;;;3.42;;
69172;SDS011;56280;49.662;8.408;2023-05-07T08:52:38;5.90;;;3.50;;
69172;SDS011;56280;49.662;8.408;2023-05-07T08:55:04;6.47;;;3.60;;
69172;SDS011;56280;49.662;8.408;2023-05-07T08:57:31;5.93;;;3.70;;
69172;SDS011;56280;49.662;8.408;2023-05-07T08:59:56;4.90;;;3.50;;
69172;SDS011;56280;49.662;8.408;2023-05-07T09:02:22;6.77;;;3.93;;
69172;SDS011;56280;49.662;8.408;2023-05-07T09:04:47;6.20;;;3.87;;
69172;SDS011;56280;49.662;8.408;2023-05-07T09:07:12;6.80;;;3.43;;
69172;SDS011;56280;49.662;8.408;2023-05-07T09:09:38;5.95;;;3.75;;
69172;SDS011;56280;49.662;8.408;2023-05-07T09:12:03;6.10;;;3.73;;
69172;SDS011;56280;49.662;8.408;2023-05-07T09:14:29;5.70;;;3.63;;
69172;SDS011;56280;49.662;8.408;2023-05-07T09:16:55;5.78;;;3.60;;
69172;SDS011;56280;49.662;8.408;2023-05-07T09:19:24;7.37;;;3.57;;
69172;SDS011;56280;49.662;8.408;2023-05-07T09:21:50;5.10;;;3.50;;
69172;SDS011;56280;49.662;8.408;2023-05-07T09:24:22;4.67;;;3.43;;
69172;SDS011;56280;49.662;8.408;2023-05-07T09:26:48;4.90;;;3.50;;
69172;SDS011;56280;49.662;8.408;2023-05-07T09:29:13;6.30;;;3.37;;
69172;SDS011;56280;49.662;8.408;2023-05-07T09:31:40;5.78;;;3.55;;
69172;SDS011;56280;49.662;8.408;2023-05-07T09:34:05;6.17;;;3.17;;
69172;SDS011;56280;49.662;8.408;2023-05-07T09:36:31;6.30;;;3.30;;
69172;SDS011;56280;49.662;8.408;2023-05-07T09:38:59;4.93;;;3.33;;
69172;SDS011;56280;49.662;8.408;2023-05-07T09:41:25;5.40;;;3.10;;
69172;SDS011;56280;49.662;8.408;2023-05-07T09:43:54;6.05;;;3.60;;
69172;SDS011;56280;49.662;8.408;2023-05-07T09:46:20;5.68;;;3.05;;
69172;SDS011;56280;49.662;8.408;2023-05-07T09:48:52;5.15;;;3.05;;
69172;SDS011;56280;49.662;8.408;2023-05-07T09:51:25;5.15;;;3.53;;
69172;SDS011;56280;49.662;8.408;2023-05-07T09:53:54;5.80;;;3.80;;
69172;SDS011;56280;49.662;8.408;2023-05-07T09:56:21;5.93;;;3.50;;
69172;SDS011;56280;49.662;8.408;2023-05-07T09:58:47;5.97;;;3.55;;
69172;SDS011;56280;49.662;8.408;2023-05-07T10:01:14;6.25;;;3.08;;
69172;SDS011;56280;49.662;8.408;2023-05-07T10:03:42;5.68;;;3.10;;
69172;SDS011;56280;49.662;8.408;2023-05-07T10:06:09;6.10;;;2.90;;
69172;SDS011;56280;49.662;8.408;2023-05-07T10:08:35;4.03;;;2.55;;
69172;SDS011;56280;49.662;8.408;2023-05-07T10:11:03;4.68;;;2.60;;
69172;SDS011;56280;49.662;8.408;2023-05-07T10:13:29;5.85;;;3.20;;
69172;SDS011;56280;49.662;8.408;2023-05-07T10:15:55;6.68;;;3.20;;
69172;SDS011;56280;49.662;8.408;2023-05-07T10:18:21;5.43;;;3.20;;
69172;SDS011;56280;49.662;8.408;2023-05-07T10:20:54;4.35;;;3.00;;
69172;SDS011;56280;49.662;8.408;2023-05-07T10:23:23;5.82;;;3.00;;
69172;SDS011;56280;49.662;8.408;2023-05-07T10:25:49;4.80;;;3.03;;
69172;SDS011;56280;49.662;8.408;2023-05-07T10:28:14;4.35;;;3.05;;
69172;SDS011;56280;49.662;8.408;2023-05-07T10:33:32;5.63;;;3.20;;
69172;SDS011;56280;49.662;8.408;2023-05-07T10:36:00;5.15;;;3.25;;
69172;SDS011;56280;49.662;8.408;2023-05-07T10:38:28;6.15;;;3.28;;
69172;SDS011;56280;49.662;8.408;2023-05-07T10:40:54;5.22;;;3.20;;
69172;SDS011;56280;49.662;8.408;2023-05-07T10:43:20;5.70;;;3.40;;
69172;SDS011;56280;49.662;8.408;2023-05-07T10:46:30;4.73;;;3.20;;
69172;SDS011;56280;49.662;8.408;2023-05-07T10:51:28;4.63;;;3.10;;
69172;SDS011;56280;49.662;8.408;2023-05-07T10:56:34;6.30;;;3.30;;
69172;SDS011;56280;49.662;8.408;2023-05-07T11:02:05;5.35;;;3.38;;
69172;SDS011;56280;49.662;8.408;2023-05-07T11:04:32;5.10;;;3.42;;
69172;SDS011;56280;49.662;8.408;2023-05-07T11:15:02;4.47;;;3.40;;
69172;SDS011;56280;49.662;8.408;2023-05-07T11:17:54;7.30;;;3.35;;
69172;SDS011;56280;49.662;8.408;2023-05-07T11:20:21;5.75;;;3.42;;
69172;SDS011;56280;49.662;8.408;2023-05-07T11:26:02;4.40;;;2.90;;
69172;SDS011;56280;49.662;8.408;2023-05-07T11:28:36;5.10;;;3.00;;
69172;SDS011;56280;49.662;8.408;2023-05-07T11:31:06;5.78;;;3.00;;
69172;SDS011;56280;49.662;8.408;2023-05-07T11:33:31;4.30;;;2.92;;
69172;SDS011;56280;49.662;8.408;2023-05-07T11:35:57;4.73;;;3.00;;
69172;SDS011;56280;49.662;8.408;2023-05-07T11:38:24;5.43;;;2.78;;
69172;SDS011;56280;49.662;8.408;2023-05-07T11:43:17;5.28;;;3.00;;
69172;SDS011;56280;49.662;8.408;2023-05-07T11:45:44;4.33;;;2.93;;
69172;SDS011;56280;49.662;8.408;2023-05-07T11:48:10;4.50;;;3.00;;
69172;SDS011;56280;49.662;8.408;2023-05-07T11:50:48;4.78;;;2.80;;
69172;SDS011;56280;49.662;8.408;2023-05-07T11:53:18;5.82;;;2.83;;
69172;SDS011;56280;49.662;8.408;2023-05-07T11:55:45;4.83;;;2.90;;
69172;SDS011;56280;49.662;8.408;2023-05-07T11:58:12;5.55;;;3.10;;
69172;SDS011;56280;49.662;8.408;2023-05-07T12:00:38;4.55;;;2.80;;
69172;SDS011;56280;49.662;8.408;2023-05-07T12:03:06;4.30;;;2.90;;
69172;SDS011;56280;49.662;8.408;2023-05-07T12:05:31;4.45;;;2.85;;
69172;SDS011;56280;49.662;8.408;2023-05-07T12:07:57;5.03;;;3.13;;
69172;SDS011;56280;49.662;8.408;2023-05-07T12:10:22;5.80;;;3.20;;
69172;SDS011;56280;49.662;8.408;2023-05-07T12:12:50;4.72;;;2.90;;
69172;SDS011;56280;49.662;8.408;2023-05-07T12:15:16;5.27;;;3.03;;
69172;SDS011;56280;49.662;8.408;2023-05-07T12:17:42;4.28;;;2.90;;
69172;SDS011;56280;49.662;8.408;2023-05-07T12:20:07;5.70;;;2.90;;
69172;SDS011;56280;49.662;8.408;2023-05-07T12:22:34;4.37;;;3.00;;
69172;SDS011;56280;49.662;8.408;2023-05-07T12:25:00;5.10;;;2.90;;
69172;SDS011;56280;49.662;8.408;2023-05-07T12:27:25;5.53;;;3.00;;
69172;SDS011;56280;49.662;8.408;2023-05-07T12:29:51;6.67;;;2.97;;
69172;SDS011;56280;49.662;8.408;2023-05-07T12:32:17;3.75;;;2.80;;
69172;SDS011;56280;49.662;8.408;2023-05-07T12:34:44;4.13;;;2.70;;
69172;SDS011;56280;49.662;8.408;2023-05-07T12:37:10;4.38;;;2.83;;
69172;SDS011;56280;49.662;8.408;2023-05-07T12:39:35;3.80;;;2.60;;
69172;SDS011;56280;49.662;8.408;2023-05-07T12:42:01;5.20;;;2.97;;
69172;SDS011;56280;49.662;8.408;2023-05-07T12:44:32;4.93;;;2.83;;
69172;SDS011;56280;49.662;8.408;2023-05-07T12:47:01;4.75;;;2.80;;
69172;SDS011;56280;49.662;8.408;2023-05-07T12:49:27;4.23;;;2.90;;
69172;SDS011;56280;49.662;8.408;2023-05-07T12:51:53;5.75;;;3.10;;
69172;SDS011;56280;49.662;8.408;2023-05-07T12:54:31;5.75;;;2.90;;
69172;SDS011;56280;49.662;8.408;2023-05-07T12:57:01;3.85;;;2.85;;
69172;SDS011;56280;49.662;8.408;2023-05-07T12:59:41;4.70;;;3.00;;
69172;SDS011;56280;49.662;8.408;2023-05-07T13:02:07;4.90;;;2.80;;
69172;SDS011;56280;49.662;8.408;2023-05-07T13:04:33;4.60;;;2.80;;
69172;SDS011;56280;49.662;8.408;2023-05-07T13:06:59;5.00;;;2.90;;
69172;SDS011;56280;49.662;8.408;2023-05-07T13:09:25;5.05;;;2.95;;
69172;SDS011;56280;49.662;8.408;2023-05-07T13:11:50;3.77;;;2.80;;
69172;SDS011;56280;49.662;8.408;2023-05-07T13:14:16;4.30;;;2.80;;
69172;SDS011;56280;49.662;8.408;2023-05-07T13:16:41;4.67;;;3.00;;
69172;SDS011;56280;49.662;8.408;2023-05-07T13:19:07;4.10;;;2.80;;
69172;SDS011;56280;49.662;8.408;2023-05-07T13:21:32;5.13;;;3.13;;
69172;SDS011;56280;49.662;8.408;2023-05-07T13:23:57;4.90;;;3.03;;
69172;SDS011;56280;49.662;8.408;2023-05-07T13:26:23;4.82;;;3.00;;
69172;SDS011;56280;49.662;8.408;2023-05-07T13:28:49;4.93;;;3.25;;
69172;SDS011;56280;49.662;8.408;2023-05-07T13:31:14;5.23;;;3.07;;
69172;SDS011;56280;49.662;8.408;2023-05-07T13:33:40;5.47;;;3.10;;
69172;SDS011;56280;49.662;8.408;2023-05-07T13:36:05;5.97;;;3.20;;
69172;SDS011;56280;49.662;8.408;2023-05-07T13:38:31;5.23;;;3.27;;
69172;SDS011;56280;49.662;8.408;2023-05-07T13:40:56;6.17;;;3.10;;
69172;SDS011;56280;49.662;8.408;2023-05-07T13:43:21;4.20;;;3.03;;
69172;SDS011;56280;49.662;8.408;2023-05-07T13:45:46;5.93;;;3.20;;
69172;SDS011;56280;49.662;8.408;2023-05-07T13:48:12;4.50;;;3.30;;
69172;SDS011;56280;49.662;8.408;2023-05-07T13:50:37;4.80;;;3.30;;
69172;SDS011;56280;49.662;8.408;2023-05-07T13:53:02;4.90;;;3.37;;
69172;SDS011;56280;49.662;8.408;2023-05-07T13:55:28;5.70;;;3.20;;
69172;SDS011;56280;49.662;8.408;2023-05-07T13:57:57;4.68;;;3.33;;
69172;SDS011;56280;49.662;8.408;2023-05-07T14:00:24;4.90;;;3.10;;
69172;SDS011;56280;49.662;8.408;2023-05-07T14:02:51;5.45;;;3.30;;
69172;SDS011;56280;49.662;8.408;2023-05-07T14:05:17;6.87;;;3.37;;
69172;SDS011;56280;49.662;8.408;2023-05-07T14:07:42;4.32;;;3.13;;
69172;SDS011;56280;49.662;8.408;2023-05-07T14:10:08;4.90;;;3.10;;
69172;SDS011;56280;49.662;8.408;2023-05-07T14:12:34;5.70;;;3.47;;
69172;SDS011;56280;49.662;8.408;2023-05-07T14:14:59;4.53;;;3.30;;
69172;SDS011;56280;49.662;8.408;2023-05-07T14:17:25;5.37;;;3.40;;
69172;SDS011;56280;49.662;8.408;2023-05-07T14:19:52;6.07;;;3.37;;
69172;SDS011;56280;49.662;8.408;2023-05-07T14:22:23;4.35;;;3.28;;
69172;SDS011;56280;49.662;8.408;2023-05-07T14:24:49;5.55;;;3.28;;
69172;SDS011;56280;49.662;8.408;2023-05-07T14:27:15;4.63;;;3.50;;
69172;SDS011;56280;49.662;8.408;2023-05-07T14:29:40;5.65;;;3.35;;
69172;SDS011;56280;49.662;8.408;2023-05-07T14:32:07;5.20;;;3.20;;
69172;SDS011;56280;49.662;8.408;2023-05-07T14:34:32;5.13;;;3.50;;
69172;SDS011;56280;49.662;8.408;2023-05-07T14:36:59;4.60;;;3.10;;
69172;SDS011;56280;49.662;8.408;2023-05-07T14:39:25;5.00;;;3.17;;
69172;SDS011;56280;49.662;8.408;2023-05-07T14:41:50;5.07;;;3.20;;
69172;SDS011;56280;49.662;8.408;2023-05-07T14:44:16;4.93;;;3.20;;
69172;SDS011;56280;49.662;8.408;2023-05-07T14:46:41;4.73;;;3.40;;
69172;SDS011;56280;49.662;8.408;2023-05-07T14:49:07;4.60;;;3.23;;
69172;SDS011;56280;49.662;8.408;2023-05-07T14:51:41;4.28;;;3.10;;
69172;SDS011;56280;49.662;8.408;2023-05-07T14:54:06;5.73;;;3.00;;
69172;SDS011;56280;49.662;8.408;2023-05-07T14:56:31;5.83;;;3.57;;
69172;SDS011;56280;49.662;8.408;2023-05-07T14:58:57;6.17;;;3.87;;
69172;SDS011;56280;49.662;8.408;2023-05-07T15:01:22;5.20;;;3.40;;
69172;SDS011;56280;49.662;8.408;2023-05-07T15:03:47;5.60;;;3.80;;
69172;SDS011;56280;49.662;8.408;2023-05-07T15:06:13;5.37;;;2.97;;